Time;durP1;ratioP1;P1;durP2;ratioP2;P2;SDS_P1;SDS_P2;PMS_P1;PMS_P2;Temp;Humidity;BMP_temperature;BMP_pressure;BME280_temperature;BME280_humidity;BME280_pressure;Samples;Min_cycle;Max_cycle;Signal;HPM_P1;HPM_P2
2022/09/17 00:01:30;;;;;;;10.93;1.20;;;10.70;99.90;;;;;;5079348;28;20028;-54
2022/09/17 00:04:00;;;;;;;11.48;1.67;;;10.70;99.90;;;;;;5081054;28;20025;-56
2022/09/17 00:06:26;;;;;;;8.43;1.38;;;10.80;99.90;;;;;;5083852;28;20024;-56
2022/09/17 00:08:53;;;;;;;13.65;1.63;;;10.80;99.90;;;;;;5086614;28;20109;-55
2022/09/17 00:11:26;;;;;;;12.35;1.55;;;10.80;99.90;;;;;;5089281;28;20072;-56
2022/09/17 00:13:52;;;;;;;6.20;1.33;;;10.80;99.90;;;;;;5078217;28;20040;-55
2022/09/17 00:16:23;;;;;;;9.35;1.48;;;10.80;99.90;;;;;;5085854;28;20024;-56
2022/09/17 00:18:48;;;;;;;12.32;1.60;;;10.90;99.90;;;;;;5084499;28;20060;-56
2022/09/17 00:21:16;;;;;;;12.23;1.40;;;10.90;99.90;;;;;;5086038;28;20051;-55
2022/09/17 00:23:42;;;;;;;15.77;2.05;;;10.90;99.90;;;;;;5088743;28;20385;-54
2022/09/17 00:26:07;;;;;;;4.60;1.27;;;10.90;99.90;;;;;;5090238;28;20059;-56
2022/09/17 00:28:33;;;;;;;11.10;1.50;;;10.90;99.90;;;;;;5090126;28;20058;-55
2022/09/17 00:30:59;;;;;;;10.07;1.95;;;11.00;99.90;;;;;;5085619;28;20310;-54
2022/09/17 00:33:24;;;;;;;8.00;1.80;;;10.90;99.90;;;;;;5093726;28;20028;-54
2022/09/17 00:36:01;;;;;;;6.28;1.17;;;11.00;99.90;;;;;;5087635;28;20036;-57
2022/09/17 00:38:27;;;;;;;11.85;1.50;;;10.90;99.90;;;;;;5090378;28;20471;-56
2022/09/17 00:40:53;;;;;;;9.73;1.00;;;10.90;99.90;;;;;;5089240;28;20497;-54
2022/09/17 00:43:40;;;;;;;5.13;1.45;;;10.90;99.90;;;;;;5092508;28;20047;-57
2022/09/17 00:46:21;;;;;;;8.90;1.60;;;10.90;99.90;;;;;;5089514;28;20030;-56
2022/09/17 00:48:48;;;;;;;8.02;1.50;;;10.90;99.90;;;;;;5085000;28;20492;-55
2022/09/17 00:51:19;;;;;;;18.13;4.75;;;10.90;99.90;;;;;;5084555;28;20023;-57
2022/09/17 00:53:44;;;;;;;9.65;2.17;;;10.90;99.90;;;;;;5089873;28;20385;-54
2022/09/17 00:56:16;;;;;;;11.52;1.45;;;10.90;99.90;;;;;;5087228;28;20107;-57
2022/09/17 00:58:42;;;;;;;10.23;1.65;;;10.90;99.90;;;;;;5092496;28;20375;-55
2022/09/17 01:01:07;;;;;;;7.03;1.45;;;10.90;99.90;;;;;;5088866;28;20070;-57
2022/09/17 01:03:33;;;;;;;4.18;1.73;;;10.90;99.90;;;;;;5091310;28;20047;-54
2022/09/17 01:06:36;;;;;;;4.82;1.63;;;10.90;99.90;;;;;;5090524;28;20387;-55
2022/09/17 01:09:15;;;;;;;11.20;1.70;;;10.90;99.90;;;;;;5074559;28;20051;-56
2022/09/17 01:11:59;;;;;;;19.38;3.00;;;10.90;99.90;;;;;;5091449;28;20032;-55
2022/09/17 01:14:44;;;;;;;5.63;1.50;;;10.90;99.90;;;;;;5085793;28;20028;-54
2022/09/17 01:17:38;;;;;;;6.43;1.98;;;11.00;99.90;;;;;;5085551;28;20103;-55
2022/09/17 01:20:04;;;;;;;5.75;1.92;;;11.00;99.90;;;;;;5082713;28;20028;-58
2022/09/17 01:22:52;;;;;;;11.00;1.92;;;11.00;99.90;;;;;;5085736;28;20071;-57
2022/09/17 01:25:27;;;;;;;9.38;2.13;;;10.90;99.90;;;;;;5087443;28;20031;-55
2022/09/17 01:28:37;;;;;;;19.15;1.90;;;10.80;99.90;;;;;;5087887;28;20032;-57
2022/09/17 01:31:24;;;;;;;8.68;1.67;;;10.80;99.90;;;;;;5084846;28;20502;-55
2022/09/17 01:34:19;;;;;;;7.57;1.65;;;10.90;99.90;;;;;;5090125;28;20035;-55
2022/09/17 01:36:51;;;;;;;;;;;10.80;99.90;;;;;;5047776;28;20028;-58
2022/09/17 01:39:26;;;;;;;10.05;2.03;;;10.80;99.90;;;;;;5090692;28;19912;-55
2022/09/17 01:42:11;;;;;;;;;;;10.90;99.90;;;;;;5087024;28;20079;-58
2022/09/17 01:45:03;;;;;;;5.55;2.25;;;10.90;99.90;;;;;;5082632;28;19914;-57
2022/09/17 01:47:36;;;;;;;5.93;1.67;;;10.90;99.90;;;;;;5085660;28;20493;-57
2022/09/17 01:50:24;;;;;;;9.68;1.35;;;10.90;99.90;;;;;;5084986;28;20016;-54
2022/09/17 01:52:53;;;;;;;20.25;2.20;;;10.90;99.90;;;;;;5087813;28;20064;-58
2022/09/17 01:55:23;;;;;;;6.93;1.63;;;10.80;99.90;;;;;;5084600;28;20482;-57
2022/09/17 01:58:23;;;;;;;11.60;1.67;;;10.80;99.90;;;;;;5087276;28;20470;-55
2022/09/17 02:00:54;;;;;;;5.53;1.58;;;10.80;99.90;;;;;;5081616;28;20020;-55
2022/09/17 02:03:48;;;;;;;10.55;1.98;;;10.80;99.90;;;;;;5081761;28;20032;-56
2022/09/17 02:06:26;;;;;;;14.82;2.03;;;10.80;99.90;;;;;;5087382;28;20032;-57
2022/09/17 02:09:00;;;;;;;11.70;2.72;;;10.80;99.90;;;;;;5087514;28;20035;-58
2022/09/17 02:11:26;;;;;;;;;;;10.80;99.90;;;;;;5087567;28;20016;-58
2022/09/17 02:13:58;;;;;;;9.98;1.83;;;10.80;99.90;;;;;;5088403;28;19911;-58
2022/09/17 02:16:31;;;;;;;9.52;1.20;;;10.90;99.90;;;;;;5089270;28;20024;-57
2022/09/17 02:19:18;;;;;;;11.35;1.83;;;10.90;99.90;;;;;;5088444;28;20111;-57
2022/09/17 02:22:05;;;;;;;12.65;1.65;;;10.90;99.90;;;;;;5082627;28;20035;-58
2022/09/17 02:24:42;;;;;;;5.15;1.42;;;10.90;99.90;;;;;;5083897;28;20025;-56
2022/09/17 02:27:28;;;;;;;12.70;1.52;;;10.90;99.90;;;;;;5086966;28;20033;-58
2022/09/17 02:29:54;;;;;;;19.35;1.85;;;10.90;99.90;;;;;;5079723;28;20031;-57
2022/09/17 02:32:19;;;;;;;17.10;2.15;;;10.90;99.90;;;;;;5085540;28;20024;-55
2022/09/17 02:34:46;;;;;;;16.80;2.05;;;10.90;99.90;;;;;;5087297;28;20020;-57
2022/09/17 02:37:12;;;;;;;10.70;1.85;;;10.90;99.90;;;;;;5086811;28;20035;-54
2022/09/17 02:39:37;;;;;;;18.30;2.45;;;10.90;99.90;;;;;;5089948;28;20040;-58
2022/09/17 02:42:35;;;;;;;8.48;1.60;;;10.90;99.90;;;;;;5083963;28;20394;-56
2022/09/17 02:45:36;;;;;;;16.65;1.95;;;10.90;99.90;;;;;;5084322;28;20111;-58
2022/09/17 02:48:22;;;;;;;19.60;2.20;;;10.90;99.90;;;;;;5036657;28;20051;-57
2022/09/17 02:51:12;;;;;;;8.50;1.83;;;11.00;99.90;;;;;;5087227;28;20763;-57
2022/09/17 02:54:09;;;;;;;8.52;1.95;;;11.00;99.90;;;;;;5078795;28;20020;-54
2022/09/17 02:57:07;;;;;;;7.03;1.50;;;11.00;99.90;;;;;;5085987;28;20047;-55
2022/09/17 02:59:57;;;;;;;9.43;1.50;;;11.10;99.90;;;;;;5038803;28;20060;-55
2022/09/17 03:02:42;;;;;;;11.20;1.75;;;11.10;99.90;;;;;;5084140;28;20117;-57
2022/09/17 03:05:09;;;;;;;15.02;1.90;;;11.10;99.90;;;;;;5087145;28;20036;-55
2022/09/17 03:07:36;;;;;;;9.07;1.95;;;11.10;99.90;;;;;;5087271;28;20028;-56
2022/09/17 03:10:01;;;;;;;12.95;2.25;;;11.10;99.90;;;;;;5087978;28;20104;-58
2022/09/17 03:12:27;;;;;;;10.25;1.98;;;11.10;99.90;;;;;;5087445;28;20119;-55
2022/09/17 03:14:52;;;;;;;16.35;2.05;;;11.10;99.90;;;;;;5091302;28;20077;-57
2022/09/17 03:17:18;;;;;;;12.05;1.42;;;11.10;99.90;;;;;;5085291;28;20573;-56
2022/09/17 03:19:43;;;;;;;14.13;2.03;;;11.10;99.90;;;;;;5087472;28;20091;-55
2022/09/17 03:22:09;;;;;;;7.78;1.33;;;11.10;99.90;;;;;;5084034;28;20024;-58
2022/09/17 03:24:34;;;;;;;5.90;1.27;;;11.10;99.90;;;;;;5078820;28;20560;-55
2022/09/17 03:27:00;;;;;;;13.00;1.50;;;11.20;99.90;;;;;;5079857;28;20039;-57
2022/09/17 03:29:25;;;;;;;17.08;1.20;;;11.20;99.90;;;;;;5086212;28;20397;-58
2022/09/17 03:31:51;;;;;;;11.45;1.67;;;11.20;99.90;;;;;;5084328;28;20028;-57
2022/09/17 03:34:17;;;;;;;10.45;1.88;;;11.20;99.90;;;;;;5087759;28;20095;-54
2022/09/17 03:36:42;;;;;;;15.50;1.63;;;11.30;99.90;;;;;;5086787;28;20024;-58
2022/09/17 03:39:08;;;;;;;13.57;1.83;;;11.30;99.90;;;;;;5086483;28;20419;-56
2022/09/17 03:41:33;;;;;;;8.55;1.25;;;11.30;99.90;;;;;;5087694;28;20478;-58
2022/09/17 03:43:59;;;;;;;16.02;2.65;;;11.30;99.90;;;;;;5085730;28;20151;-56
2022/09/17 03:46:24;;;;;;;14.98;2.20;;;11.30;99.90;;;;;;5085500;28;20475;-57
2022/09/17 03:48:50;;;;;;;13.82;1.77;;;11.30;99.90;;;;;;5080864;28;20028;-58
2022/09/17 03:51:15;;;;;;;9.07;1.60;;;11.30;99.90;;;;;;5088953;28;20059;-57
2022/09/17 03:53:41;;;;;;;12.45;2.08;;;11.30;99.90;;;;;;5081635;28;20502;-57
2022/09/17 03:56:07;;;;;;;20.90;2.22;;;11.30;99.90;;;;;;5088970;28;20048;-57
2022/09/17 03:58:33;;;;;;;12.13;1.92;;;11.30;99.90;;;;;;5081158;28;20065;-57
2022/09/17 04:00:58;;;;;;;17.05;1.55;;;11.30;99.90;;;;;;5077350;28;20076;-58
2022/09/17 04:03:25;;;;;;;19.58;2.28;;;11.30;99.90;;;;;;5080742;28;20075;-55
2022/09/17 04:05:51;;;;;;;20.10;2.45;;;11.30;99.90;;;;;;5083938;28;20108;-56
2022/09/17 04:08:17;;;;;;;9.20;1.63;;;11.30;99.90;;;;;;5081327;28;20111;-56
2022/09/17 04:10:43;;;;;;;9.98;1.88;;;11.30;99.90;;;;;;5104249;22;20045;-58
2022/09/17 04:13:09;;;;;;;17.10;2.20;;;11.30;99.90;;;;;;5101206;28;20494;-57
2022/09/17 04:15:35;;;;;;;10.52;1.90;;;11.30;99.90;;;;;;5105392;28;20047;-58
2022/09/17 04:18:00;;;;;;;9.90;1.88;;;11.30;99.90;;;;;;5107463;28;20031;-57
2022/09/17 04:20:27;;;;;;;10.10;1.42;;;11.30;99.90;;;;;;5101386;28;20028;-56
2022/09/17 04:22:53;;;;;;;7.90;1.67;;;11.30;99.90;;;;;;5086843;28;20032;-57
2022/09/17 04:25:19;;;;;;;10.38;2.00;;;11.30;99.90;;;;;;5079896;28;20032;-58
2022/09/17 04:27:44;;;;;;;12.82;1.40;;;11.30;99.90;;;;;;5085683;28;20033;-58
2022/09/17 04:30:11;;;;;;;13.57;1.20;;;11.30;99.90;;;;;;5088372;28;20491;-57
2022/09/17 04:32:36;;;;;;;14.38;1.83;;;11.20;99.90;;;;;;5081208;28;20076;-55
2022/09/17 04:35:02;;;;;;;12.70;1.90;;;11.20;99.90;;;;;;5081811;28;20447;-56
2022/09/17 04:37:28;;;;;;;8.13;2.03;;;11.20;99.90;;;;;;5081436;28;20036;-55
2022/09/17 04:39:53;;;;;;;13.73;2.28;;;11.20;99.90;;;;;;5083917;28;20086;-59
2022/09/17 04:42:19;;;;;;;13.52;2.35;;;11.10;99.90;;;;;;5078730;28;20024;-57
2022/09/17 04:44:44;;;;;;;17.42;1.98;;;11.10;99.90;;;;;;5084854;28;20562;-56
2022/09/17 04:47:10;;;;;;;13.90;1.50;;;11.00;99.90;;;;;;5082547;28;20038;-59
2022/09/17 04:49:35;;;;;;;11.57;1.65;;;11.00;99.90;;;;;;5077751;28;20031;-58
2022/09/17 04:52:02;;;;;;;8.70;1.63;;;11.00;99.90;;;;;;5083190;28;20064;-58
2022/09/17 04:54:27;;;;;;;8.63;1.98;;;11.00;99.90;;;;;;5084843;28;20151;-58
2022/09/17 04:56:53;;;;;;;17.95;1.67;;;11.00;99.90;;;;;;5086085;28;20098;-56
2022/09/17 04:59:18;;;;;;;8.35;1.35;;;11.00;99.90;;;;;;5076372;28;20031;-59
2022/09/17 05:01:44;;;;;;;17.20;1.90;;;11.00;99.90;;;;;;5082403;28;20062;-57
2022/09/17 05:04:09;;;;;;;15.93;1.73;;;11.00;99.90;;;;;;5085979;28;20028;-59
2022/09/17 05:06:35;;;;;;;10.95;1.70;;;11.00;99.90;;;;;;5078960;28;20505;-59
2022/09/17 05:09:01;;;;;;;11.23;1.80;;;11.00;99.90;;;;;;5083412;28;20583;-59
2022/09/17 05:11:27;;;;;;;6.93;1.20;;;11.00;99.90;;;;;;5084636;28;20666;-60
2022/09/17 05:13:54;;;;;;;4.07;1.08;;;11.00;99.90;;;;;;5086749;28;20066;-59
2022/09/17 05:16:20;;;;;;;16.88;1.83;;;11.00;99.90;;;;;;5076772;28;20788;-59
2022/09/17 05:18:45;;;;;;;13.07;1.85;;;11.00;99.90;;;;;;5078532;28;20032;-58
2022/09/17 05:21:11;;;;;;;13.20;1.92;;;11.00;99.90;;;;;;5076764;28;20032;-56
2022/09/17 05:23:36;;;;;;;13.73;1.90;;;11.00;99.90;;;;;;5074171;28;20025;-58
2022/09/17 05:26:02;;;;;;;15.05;1.73;;;11.00;99.90;;;;;;5077678;28;20482;-54
2022/09/17 05:28:28;;;;;;;9.75;1.60;;;11.00;99.90;;;;;;5085633;28;20086;-59
2022/09/17 05:30:53;;;;;;;8.90;1.52;;;11.00;99.90;;;;;;5081050;28;20035;-59
2022/09/17 05:33:19;;;;;;;14.98;1.60;;;11.00;99.90;;;;;;5080880;28;20028;-58
2022/09/17 05:35:45;;;;;;;17.63;1.75;;;11.00;99.90;;;;;;5079128;28;20031;-60
2022/09/17 05:38:11;;;;;;;17.75;1.83;;;11.00;99.90;;;;;;5077959;28;20371;-59
2022/09/17 05:40:37;;;;;;;13.50;1.70;;;11.00;99.90;;;;;;5073828;28;20135;-59
2022/09/17 05:43:04;;;;;;;18.98;1.30;;;11.00;99.90;;;;;;5080209;28;20020;-59
2022/09/17 05:45:32;;;;;;;5.32;1.00;;;11.00;99.90;;;;;;5071769;28;20046;-59
2022/09/17 05:47:59;;;;;;;13.98;1.40;;;11.00;99.90;;;;;;5077181;28;20031;-59
2022/09/17 05:50:25;;;;;;;15.70;1.40;;;11.10;99.90;;;;;;5078429;28;20031;-59
2022/09/17 05:52:51;;;;;;;10.75;1.50;;;11.00;99.90;;;;;;5075375;28;20062;-59
2022/09/17 05:55:18;;;;;;;13.20;1.60;;;11.10;99.90;;;;;;5076065;28;20027;-59
2022/09/17 05:57:43;;;;;;;12.82;1.40;;;11.10;99.90;;;;;;5078733;28;20032;-60
2022/09/17 06:00:10;;;;;;;12.68;1.60;;;11.20;99.90;;;;;;5086436;28;20046;-58
2022/09/17 06:02:36;;;;;;;8.23;1.23;;;11.20;99.90;;;;;;5081454;28;20455;-59
2022/09/17 06:05:02;;;;;;;14.43;1.63;;;11.30;99.90;;;;;;5081162;28;20062;-61
2022/09/17 06:07:28;;;;;;;9.32;1.30;;;11.30;99.90;;;;;;5077205;28;20036;-58
2022/09/17 06:09:54;;;;;;;14.00;2.53;;;11.40;99.90;;;;;;5077590;28;20496;-59
2022/09/17 06:12:19;;;;;;;9.27;1.42;;;11.50;99.90;;;;;;5078728;28;20537;-59
2022/09/17 06:14:45;;;;;;;9.55;1.02;;;11.50;99.90;;;;;;5075824;28;20017;-59
2022/09/17 06:17:10;;;;;;;13.73;2.10;;;11.50;99.90;;;;;;5077596;28;20522;-59
2022/09/17 06:19:36;;;;;;;11.90;2.08;;;11.60;99.90;;;;;;5082341;28;20029;-57
2022/09/17 06:22:01;;;;;;;6.88;1.10;;;11.70;99.90;;;;;;5077629;28;20445;-57
2022/09/17 06:24:27;;;;;;;10.88;1.63;;;11.70;99.90;;;;;;5074632;28;20062;-56
2022/09/17 06:26:53;;;;;;;12.93;2.05;;;11.80;99.90;;;;;;5070614;28;20021;-59
2022/09/17 06:29:19;;;;;;;10.57;1.50;;;11.90;99.90;;;;;;5069321;28;20028;-58
2022/09/17 06:31:46;;;;;;;6.93;1.20;;;12.00;99.90;;;;;;5075991;28;20073;-56
2022/09/17 06:34:12;;;;;;;8.30;0.90;;;12.10;99.90;;;;;;5079228;28;20044;-55
2022/09/17 06:36:37;;;;;;;15.13;2.35;;;12.10;99.90;;;;;;5073614;28;20070;-59
2022/09/17 06:39:03;;;;;;;13.82;1.35;;;12.20;99.90;;;;;;5081614;28;20024;-56
2022/09/17 06:41:29;;;;;;;6.78;1.33;;;12.20;99.90;;;;;;5084275;28;20174;-58
2022/09/17 06:43:54;;;;;;;11.52;1.20;;;12.20;99.90;;;;;;5083699;28;20028;-59
2022/09/17 06:46:20;;;;;;;7.68;1.10;;;12.30;99.90;;;;;;5077387;28;20028;-58
2022/09/17 06:48:45;;;;;;;11.93;1.40;;;12.30;99.90;;;;;;5073783;28;20020;-57
2022/09/17 06:51:11;;;;;;;14.85;1.42;;;12.30;99.90;;;;;;5080164;28;20035;-58
2022/09/17 06:53:38;;;;;;;18.73;1.63;;;12.30;99.90;;;;;;5074887;28;20020;-58
2022/09/17 06:56:05;;;;;;;9.32;1.90;;;12.20;99.90;;;;;;5078300;28;20052;-57
2022/09/17 06:58:31;;;;;;;12.40;1.85;;;12.20;99.90;;;;;;5071029;28;20055;-59
2022/09/17 07:01:01;;;;;;;4.90;1.13;;;12.10;99.90;;;;;;5070382;28;20060;-59
2022/09/17 07:03:27;;;;;;;14.70;1.55;;;12.10;99.90;;;;;;5074756;28;20032;-57
2022/09/17 07:05:53;;;;;;;8.98;1.10;;;12.10;99.90;;;;;;5080059;28;20036;-59
2022/09/17 07:08:19;;;;;;;9.48;1.13;;;12.10;99.90;;;;;;5080377;28;20576;-56
2022/09/17 07:10:44;;;;;;;10.50;1.15;;;12.10;99.90;;;;;;5079161;28;20036;-60
2022/09/17 07:13:10;;;;;;;10.52;1.25;;;12.10;99.90;;;;;;5077164;28;20119;-59
2022/09/17 07:15:35;;;;;;;10.45;1.05;;;12.20;99.90;;;;;;5076958;28;20012;-60
2022/09/17 07:18:08;;;;;;;13.40;1.40;;;12.10;99.90;;;;;;5079368;28;20035;-58
2022/09/17 07:20:34;;;;;;;12.98;1.10;;;12.20;99.90;;;;;;5076961;28;20032;-58
2022/09/17 07:23:00;;;;;;;12.38;1.58;;;12.20;99.90;;;;;;5079223;28;20065;-59
2022/09/17 07:25:26;;;;;;;13.98;2.40;;;12.30;99.90;;;;;;5080142;28;20383;-59
2022/09/17 07:27:52;;;;;;;13.77;1.70;;;12.30;99.90;;;;;;5082216;28;20889;-59
2022/09/17 07:30:18;;;;;;;10.32;1.60;;;12.30;99.90;;;;;;5073209;28;20035;-58
2022/09/17 07:32:44;;;;;;;10.13;0.88;;;12.30;99.90;;;;;;5074513;28;20017;-56
2022/09/17 07:35:09;;;;;;;9.02;1.42;;;12.40;99.90;;;;;;5076830;28;20516;-59
2022/09/17 07:37:35;;;;;;;10.70;1.65;;;12.40;99.90;;;;;;5078618;28;20382;-58
2022/09/17 07:40:01;;;;;;;20.05;2.40;;;12.40;99.90;;;;;;5072898;28;20036;-58
2022/09/17 07:42:26;;;;;;;14.32;1.75;;;12.40;99.90;;;;;;5077893;28;20029;-58
2022/09/17 07:44:52;;;;;;;11.57;2.45;;;12.40;99.90;;;;;;5073777;28;20490;-59
2022/09/17 07:47:18;;;;;;;6.85;1.45;;;12.40;99.90;;;;;;5079021;28;20059;-58
2022/09/17 07:49:44;;;;;;;10.40;1.10;;;12.40;99.90;;;;;;5077331;28;23449;-56
2022/09/17 07:52:10;;;;;;;6.80;1.30;;;12.50;99.90;;;;;;5084831;28;20034;-57
2022/09/17 07:54:36;;;;;;;7.32;1.33;;;12.50;99.90;;;;;;5080428;28;20519;-59
2022/09/17 07:57:02;;;;;;;7.55;1.10;;;12.50;99.90;;;;;;5084845;28;20115;-53
2022/09/17 07:59:27;;;;;;;13.88;1.85;;;12.50;99.90;;;;;;5086559;28;20020;-59
2022/09/17 08:01:53;;;;;;;14.63;1.17;;;12.50;99.90;;;;;;5086159;28;20077;-57
2022/09/17 08:04:18;;;;;;;15.00;1.80;;;12.60;99.90;;;;;;5080288;28;20089;-57
2022/09/17 08:06:47;;;;;;;14.20;1.67;;;12.80;99.90;;;;;;5085805;28;20023;-59
2022/09/17 08:09:14;;;;;;;10.63;1.52;;;12.90;99.90;;;;;;5083508;28;20028;-59
2022/09/17 08:11:40;;;;;;;16.38;1.98;;;13.00;99.90;;;;;;5081413;28;20103;-58
2022/09/17 08:14:10;;;;;;;9.13;1.45;;;13.00;99.90;;;;;;5081759;28;20028;-58
2022/09/17 08:16:35;;;;;;;9.88;1.08;;;13.10;99.90;;;;;;5080453;28;20043;-60
2022/09/17 08:19:02;;;;;;;12.43;1.42;;;13.20;99.90;;;;;;5078409;28;20079;-59
2022/09/17 08:21:27;;;;;;;16.10;1.30;;;13.40;99.90;;;;;;5083154;28;20073;-59
2022/09/17 08:23:53;;;;;;;10.00;1.20;;;13.60;99.90;;;;;;5073779;28;20044;-60
2022/09/17 08:26:21;;;;;;;13.30;2.25;;;13.70;99.90;;;;;;5079135;28;20024;-60
2022/09/17 08:28:49;;;;;;;11.57;1.70;;;13.70;99.90;;;;;;5079916;28;20490;-60
2022/09/17 08:31:17;;;;;;;12.90;1.25;;;13.80;99.90;;;;;;5083753;28;20066;-60
2022/09/17 08:33:43;;;;;;;9.90;1.25;;;13.80;99.90;;;;;;5078290;28;20047;-60
2022/09/17 08:36:11;;;;;;;11.93;1.15;;;13.80;99.90;;;;;;5080526;28;20020;-60
2022/09/17 08:38:37;;;;;;;9.73;1.05;;;13.90;99.90;;;;;;5078733;28;20502;-61
2022/09/17 08:41:11;;;;;;;12.75;1.30;;;13.80;99.90;;;;;;5076668;28;20028;-57
2022/09/17 08:43:41;;;;;;;10.10;0.85;;;13.70;99.90;;;;;;5076315;28;20078;-55
2022/09/17 08:46:09;;;;;;;11.65;1.30;;;13.80;99.90;;;;;;5078388;28;20028;-60
2022/09/17 08:48:45;;;;;;;9.38;1.30;;;13.80;99.90;;;;;;5071535;28;20027;-60
2022/09/17 08:51:31;;;;;;;16.05;1.73;;;13.90;99.90;;;;;;5079456;28;20027;-60
2022/09/17 08:54:16;;;;;;;14.57;1.05;;;14.00;99.90;;;;;;5081714;28;20016;-58
2022/09/17 08:56:46;;;;;;;8.95;1.65;;;13.80;99.90;;;;;;5082059;28;20099;-56
2022/09/17 08:59:37;;;;;;;11.18;1.70;;;14.00;99.90;;;;;;5082934;28;20039;-57
2022/09/17 09:02:28;;;;;;;13.48;1.13;;;14.10;99.90;;;;;;5078781;28;20509;-60
2022/09/17 09:05:09;;;;;;;10.73;1.33;;;14.20;99.90;;;;;;5082878;28;20035;-60
2022/09/17 09:07:43;;;;;;;6.57;1.00;;;14.20;99.90;;;;;;5076118;28;20063;-59
2022/09/17 09:10:25;;;;;;;;;;;14.30;99.90;;;;;;5081369;28;20081;-60
2022/09/17 09:12:53;;;;;;;7.43;1.38;;;14.60;99.90;;;;;;5078188;28;20008;-60
2022/09/17 09:15:25;;;;;;;11.30;1.45;;;14.60;99.90;;;;;;5079202;28;20048;-60
2022/09/17 09:17:53;;;;;;;8.43;1.10;;;14.70;99.90;;;;;;5079284;28;20047;-60
2022/09/17 09:20:28;;;;;;;18.88;1.95;;;14.60;99.90;;;;;;5077167;28;20024;-61
2022/09/17 09:22:56;;;;;;;11.07;1.45;;;14.60;99.90;;;;;;5078776;28;20141;-60
2022/09/17 09:25:25;;;;;;;11.38;2.30;;;14.50;99.90;;;;;;5080077;28;20020;-60
2022/09/17 09:28:20;;;;;;;8.48;1.30;;;14.70;99.90;;;;;;5076789;28;20027;-59
2022/09/17 09:30:46;;;;;;;;;;;15.00;99.90;;;;;;5073961;28;20085;-59
2022/09/17 09:33:21;;;;;;;11.23;1.63;;;15.10;99.90;;;;;;5077151;28;19912;-59
2022/09/17 09:35:47;;;;;;;9.75;1.15;;;15.30;99.90;;;;;;5078786;28;20566;-59
2022/09/17 09:38:33;;;;;;;6.55;1.30;;;15.20;99.90;;;;;;5075856;28;20021;-59
2022/09/17 09:41:15;;;;;;;9.73;1.55;;;14.90;99.90;;;;;;5082270;28;20032;-58
2022/09/17 09:43:43;;;;;;;18.52;1.73;;;14.90;99.90;;;;;;5075984;28;20044;-55
2022/09/17 09:46:23;;;;;;;8.50;1.10;;;15.00;99.90;;;;;;5080829;28;20032;-57
2022/09/17 09:48:52;;;;;;;10.18;1.40;;;15.20;99.90;;;;;;5079829;28;20025;-59
2022/09/17 09:51:44;;;;;;;11.23;0.88;;;15.10;99.90;;;;;;5079860;28;20025;-59
2022/09/17 09:54:16;;;;;;;6.20;1.23;;;14.90;99.90;;;;;;5080556;28;20024;-56
2022/09/17 09:57:16;;;;;;;13.07;1.35;;;14.80;99.90;;;;;;5073607;28;20105;-59
2022/09/17 09:59:42;;;;;;;8.98;1.38;;;15.10;99.90;;;;;;5079768;28;20032;-58
2022/09/17 10:02:08;;;;;;;11.32;1.17;;;15.50;99.90;;;;;;5075681;28;20084;-58
2022/09/17 10:04:34;;;;;;;4.97;0.93;;;15.60;99.90;;;;;;5079385;28;20024;-58
2022/09/17 10:07:08;;;;;;;4.65;0.93;;;15.60;99.90;;;;;;5075823;28;20031;-57
2022/09/17 10:09:35;;;;;;;8.27;1.70;;;15.70;99.90;;;;;;5072123;28;20521;-60
2022/09/17 10:12:21;;;;;;;11.52;1.45;;;15.50;99.90;;;;;;5076886;28;20039;-58
2022/09/17 10:14:47;;;;;;;6.45;1.42;;;15.30;99.90;;;;;;5105301;22;20071;-57
2022/09/17 10:17:19;;;;;;;9.38;0.82;;;15.20;99.90;;;;;;5103967;28;20485;-57
2022/09/17 10:20:12;;;;;;;3.78;0.95;;;15.10;99.90;;;;;;5109009;28;20152;-58
2022/09/17 10:22:45;;;;;;;5.32;0.88;;;15.00;99.90;;;;;;5098945;28;20027;-57
2022/09/17 10:25:33;;;;;;;15.35;1.17;;;15.30;99.90;;;;;;5097506;28;20153;-56
2022/09/17 10:28:02;;;;;;;13.02;1.27;;;15.50;99.90;;;;;;5098483;28;20027;-57
2022/09/17 10:30:27;;;;;;;6.57;1.30;;;15.50;99.90;;;;;;5106105;28;20055;-57
2022/09/17 10:33:32;;;;;;;8.13;0.80;;;15.50;99.90;;;;;;5104933;28;20484;-58
2022/09/17 10:36:07;;;;;;;12.70;1.38;;;15.70;99.90;;;;;;5079247;28;20044;-57
2022/09/17 10:38:41;;;;;;;5.50;0.88;;;16.00;99.90;;;;;;5095818;28;20482;-57
2022/09/17 10:41:17;;;;;;;10.25;3.40;;;16.20;99.90;;;;;;5094924;28;20127;-58
2022/09/17 10:43:43;;;;;;;12.63;1.02;;;16.30;99.90;;;;;;5105528;28;20020;-58
2022/09/17 10:46:32;;;;;;;9.88;0.82;;;16.20;99.90;;;;;;5098665;28;20444;-54
2022/09/17 10:49:09;;;;;;;6.00;0.60;;;16.30;99.90;;;;;;5094083;28;20409;-57
2022/09/17 10:51:36;;;;;;;9.23;0.80;;;16.20;99.90;;;;;;5092351;28;20031;-56
2022/09/17 10:54:06;;;;;;;9.07;0.90;;;15.90;99.90;;;;;;5095543;28;20077;-55
2022/09/17 10:56:36;;;;;;;7.63;0.90;;;16.00;99.90;;;;;;5091631;28;20338;-56
2022/09/17 10:59:41;;;;;;;6.55;0.68;;;16.30;99.90;;;;;;5100571;28;20027;-56
2022/09/17 11:02:24;;;;;;;5.07;0.75;;;16.30;99.90;;;;;;5096520;28;20058;-58
2022/09/17 11:05:02;;;;;;;6.22;0.82;;;15.90;99.90;;;;;;5091263;28;20085;-56
2022/09/17 11:07:37;;;;;;;7.85;1.00;;;15.70;99.90;;;;;;5093738;28;20035;-55
2022/09/17 11:10:35;;;;;;;6.03;0.93;;;15.80;99.90;;;;;;5106531;28;20046;-55
2022/09/17 11:13:35;;;;;;;7.10;0.90;;;15.90;99.90;;;;;;5103947;28;20047;-57
2022/09/17 11:16:15;;;;;;;4.90;0.68;;;16.20;99.90;;;;;;5105208;28;20034;-58
2022/09/17 11:18:45;;;;;;;3.00;0.55;;;16.40;99.90;;;;;;5099029;28;20601;-58
2022/09/17 11:21:36;;;;;;;3.40;0.73;;;16.30;99.90;;;;;;5099418;28;20056;-58
2022/09/17 11:24:30;;;;;;;2.95;0.70;;;16.20;99.90;;;;;;5090339;28;20088;-58
2022/09/17 11:27:38;;;;;;;7.63;2.70;;;16.40;99.90;;;;;;5094831;28;20102;-57
2022/09/17 11:30:20;;;;;;;3.08;0.73;;;16.50;99.90;;;;;;5043269;28;20040;-58
2022/09/17 11:33:07;;;;;;;1.90;0.65;;;16.90;99.90;;;;;;5098158;28;20031;-59
2022/09/17 11:35:50;;;;;;;2.97;0.75;;;17.10;99.90;;;;;;5099375;28;20016;-58
2022/09/17 11:38:42;;;;;;;4.78;0.68;;;17.00;99.90;;;;;;5102197;28;20520;-56
2022/09/17 11:41:15;;;;;;;10.00;1.00;;;17.00;99.90;;;;;;5094480;28;20391;-56
2022/09/17 11:44:03;;;;;;;2.78;0.80;;;16.70;99.90;;;;;;5104933;28;20093;-58
2022/09/17 11:46:44;;;;;;;9.73;0.60;;;16.40;99.90;;;;;;5103825;28;20020;-58
2022/09/17 11:49:19;;;;;;;4.65;0.65;;;15.60;99.90;;;;;;5097007;28;20031;-59
2022/09/17 11:51:57;;;;;;;3.22;0.57;;;14.60;99.90;;;;;;5103491;28;20124;-55
2022/09/17 11:54:28;;;;;;;5.97;0.50;;;13.60;99.90;;;;;;5096117;28;20021;-57
2022/09/17 11:57:12;;;;;;;6.80;0.73;;;12.90;99.90;;;;;;5095043;28;20115;-58
2022/09/17 12:00:06;;;;;;;2.15;0.60;;;12.70;99.90;;;;;;5096300;28;20028;-55
2022/09/17 12:02:50;;;;;;;2.90;0.80;;;12.60;99.90;;;;;;5094692;28;20036;-56
2022/09/17 12:05:20;;;;;;;4.93;0.68;;;12.80;99.90;;;;;;5100364;28;20032;-55
2022/09/17 12:08:20;;;;;;;12.30;0.77;;;12.90;99.90;;;;;;5098651;28;20122;-57
2022/09/17 12:11:28;;;;;;;6.32;0.82;;;13.30;99.90;;;;;;5095767;28;20079;-55
2022/09/17 12:14:00;;;;;;;6.35;1.00;;;13.60;99.90;;;;;;5099594;28;20102;-55
2022/09/17 12:16:32;;;;;;;4.57;0.80;;;14.00;99.90;;;;;;5096145;28;20124;-56
2022/09/17 12:19:04;;;;;;;3.35;0.73;;;14.30;99.90;;;;;;5107975;28;20081;-56
2022/09/17 12:21:37;;;;;;;8.98;0.90;;;14.60;99.90;;;;;;5103985;28;20027;-57
2022/09/17 12:24:23;;;;;;;1.83;0.80;;;14.70;99.90;;;;;;5101650;28;20371;-58
2022/09/17 12:27:27;;;;;;;4.57;0.70;;;15.00;99.90;;;;;;5094745;28;20494;-58
2022/09/17 12:30:12;;;;;;;2.75;0.90;;;15.30;99.90;;;;;;5105224;28;20040;-57
2022/09/17 12:33:10;;;;;;;2.60;0.90;;;15.60;99.90;;;;;;5104553;28;20019;-56
2022/09/17 12:35:51;;;;;;;6.25;0.88;;;15.40;99.90;;;;;;5093712;28;20084;-56
2022/09/17 12:38:41;;;;;;;5.40;0.85;;;15.10;99.90;;;;;;5095048;28;20059;-58
2022/09/17 12:41:19;;;;;;;5.95;1.10;;;14.70;99.90;;;;;;5110269;28;20027;-57
2022/09/17 12:44:16;;;;;;;5.57;0.93;;;14.50;99.90;;;;;;5103631;28;20023;-58
2022/09/17 12:47:06;;;;;;;16.52;0.95;;;14.30;99.90;;;;;;5112791;28;20106;-56
2022/09/17 12:49:59;;;;;;;6.00;0.70;;;14.00;99.90;;;;;;5098469;28;20050;-57
2022/09/17 12:52:40;;;;;;;5.68;0.60;;;13.40;99.90;;;;;;5093126;28;20576;-57
2022/09/17 12:55:11;;;;;;;5.57;1.27;;;13.40;99.90;;;;;;5100931;28;20031;-58
2022/09/17 12:57:59;;;;;;;3.58;0.80;;;13.50;99.90;;;;;;5099445;28;20506;-58
2022/09/17 13:00:25;;;;;;;8.02;0.50;;;13.70;99.90;;;;;;5095610;28;20028;-55
2022/09/17 13:03:17;;;;;;;5.55;0.80;;;13.80;99.90;;;;;;5099100;28;20503;-56
2022/09/17 13:06:10;;;;;;;5.18;0.80;;;14.10;99.90;;;;;;5103800;28;20163;-56
2022/09/17 13:09:03;;;;;;;3.58;0.70;;;14.40;99.90;;;;;;5098946;28;20028;-56
2022/09/17 13:12:05;;;;;;;5.40;0.80;;;14.80;99.90;;;;;;5109714;28;20024;-54
2022/09/17 13:15:06;;;;;;;4.38;0.80;;;15.40;99.90;;;;;;5091222;28;20024;-57